Asukamaru — JG5536 — position and weather

sailwx.info

Track history (hours):
 
Tides and Currents Weather Stations Pressure Air Temp Water Temp Dewpoint Dewpoint Depression Visibility Wind Speed Wind Dir Waves Ship Positions

Asukamaru

Last reported at 2016-Feb-13 23:34 UTC. Time now 2016-Feb-13 23:38 UTC.
Position N 35°38' E 139°45'.

Length 31 m; draft 3 m.

Type: Tug. MMSI: 431001145.

Date/timePositionNaut miles runAvg speedWind from/ knotsBaromVisibWave heightAir tempDewpointWater temp
2016-Feb-13 23:34N 35°38' E 139°45'0 0.0
2016-Feb-13 22:34N 35°38' E 139°45'0 0.0
2016-Feb-13 21:33N 35°38' E 139°45'0 0.0
2016-Feb-13 20:34N 35°38' E 139°45'0 0.0
2016-Feb-13 19:34N 35°38' E 139°45'0 0.0
2016-Feb-13 18:33N 35°38' E 139°45'0 0.0
2016-Feb-13 17:33N 35°38' E 139°45'0 0.0
2016-Feb-13 16:34N 35°38' E 139°45'0 0.0
2016-Feb-13 15:33N 35°38' E 139°45'0 0.0
2016-Feb-13 14:34N 35°38' E 139°45'0 0.0
2016-Feb-13 13:34N 35°38' E 139°45'0 0.0
2016-Feb-13 12:34N 35°38' E 139°45'2 2.0
2016-Feb-13 11:33N 35°37' E 139°47'0 0.0
2016-Feb-13 10:34N 35°37' E 139°47'0 0.2
2016-Feb-13 09:33N 35°37' E 139°47'1 1.0
2016-Feb-13 08:34N 35°36' E 139°47'2 2.3
2016-Feb-13 07:33N 35°38' E 139°45'3 2.6
2016-Feb-13 06:34N 35°36' E 139°47'1 1.0
2016-Feb-13 05:34N 35°37' E 139°47'2 1.9
2016-Feb-13 04:33N 35°38' E 139°45'0 0.0
2016-Feb-13 03:33N 35°38' E 139°45'0 0.0
2016-Feb-13 02:33N 35°38' E 139°45'0 0.0
2016-Feb-13 01:33N 35°38' E 139°45'0 0.0
2016-Feb-13 00:33N 35°38' E 139°45'0 0.0
2016-Feb-12 23:33N 35°38' E 139°45'2 2.3
2016-Feb-12 22:33N 35°36' E 139°46'3 2.8
2016-Feb-12 21:33N 35°34' E 139°49'3 3.4
2016-Feb-12 20:34N 35°37' E 139°46'1 1.5
2016-Feb-12 19:34N 35°38' E 139°45'0 0.0
2016-Feb-12 18:33N 35°38' E 139°45'0 0.0
2016-Feb-12 17:33N 35°38' E 139°45'0 0.0
2016-Feb-12 16:33N 35°38' E 139°45'0 0.0
2016-Feb-12 15:34N 35°38' E 139°45'0 0.0
2016-Feb-12 14:33N 35°38' E 139°45'0 0.0
2016-Feb-12 13:33N 35°38' E 139°45'0 0.0
2016-Feb-12 12:34N 35°38' E 139°45'0 0.0
2016-Feb-12 11:33N 35°38' E 139°45'0 0.0
2016-Feb-12 10:25N 35°38' E 139°45'0 0.0
2016-Feb-12 09:27N 35°38' E 139°45'0 0.0
2016-Feb-12 08:33N 35°38' E 139°45'0 0.0
2016-Feb-12 07:34N 35°38' E 139°45'0 0.1
2016-Feb-12 06:33N 35°38' E 139°46'0 0.1
2016-Feb-12 05:34N 35°38' E 139°45'0 0.0
2016-Feb-12 04:34N 35°38' E 139°45'0 0.0
2016-Feb-12 03:33N 35°38' E 139°45'0 0.0
2016-Feb-12 02:33N 35°38' E 139°45'0 0.0
2016-Feb-12 01:34N 35°38' E 139°45'0 0.0
2016-Feb-12 00:34N 35°38' E 139°45'0 0.0
2016-Feb-11 23:33N 35°38' E 139°45'2 2.2
2016-Feb-11 22:33N 35°36' E 139°47'1 1.0
2016-Feb-11 21:33N 35°35' E 139°47'2 2.1
2016-Feb-11 20:33N 35°37' E 139°46'1 0.9
2016-Feb-11 19:33N 35°38' E 139°45'0 0.0
2016-Feb-11 18:33N 35°38' E 139°45'0 0.0
2016-Feb-11 17:34N 35°38' E 139°45'0 0.0
2016-Feb-11 16:33N 35°38' E 139°45'0 0.0
2016-Feb-11 15:33N 35°38' E 139°45'0 0.0
2016-Feb-11 14:34N 35°38' E 139°45'0 0.0
2016-Feb-11 13:34N 35°38' E 139°45'0 0.0
2016-Feb-11 12:34N 35°38' E 139°45'0 0.0
2016-Feb-11 11:33N 35°38' E 139°45'0 0.0
2016-Feb-11 10:34N 35°38' E 139°45'0 0.0
2016-Feb-11 09:34N 35°38' E 139°45'0 0.0
2016-Feb-11 08:33N 35°38' E 139°45'0 0.0
2016-Feb-11 07:34N 35°38' E 139°45'0 0.0
2016-Feb-11 06:33N 35°38' E 139°45'0 0.0
2016-Feb-11 05:34N 35°38' E 139°45'0 0.0
2016-Feb-11 04:34N 35°38' E 139°45'0 0.0
2016-Feb-11 03:33N 35°38' E 139°45'0 0.0
2016-Feb-11 02:33N 35°38' E 139°45'0 0.0
2016-Feb-11 01:33N 35°38' E 139°45'0 0.0
2016-Feb-11 00:33N 35°38' E 139°45'0 0.0
2016-Feb-10 23:34N 35°38' E 139°45'0 0.0
2016-Feb-10 22:34N 35°38' E 139°45'0 0.0
2016-Feb-10 21:34N 35°38' E 139°45'0 0.0
2016-Feb-10 20:33N 35°38' E 139°45'0 0.0
2016-Feb-10 19:34N 35°38' E 139°45'0 0.0
2016-Feb-10 18:33N 35°38' E 139°45'0 0.0
2016-Feb-10 17:33N 35°38' E 139°45'0 0.0
2016-Feb-10 16:33N 35°38' E 139°45'0 0.0
2016-Feb-10 15:33N 35°38' E 139°45'0 0.0
2016-Feb-10 14:34N 35°38' E 139°45'0 0.0
2016-Feb-10 13:33N 35°38' E 139°45'0 0.0
2016-Feb-10 12:33N 35°38' E 139°45'0 0.0
2016-Feb-10 11:33N 35°38' E 139°45'0 0.0
2016-Feb-10 10:34N 35°38' E 139°45'0 0.0
2016-Feb-10 09:34N 35°38' E 139°45'0 0.0
2016-Feb-10 08:33N 35°38' E 139°45'0 0.0
2016-Feb-10 07:33N 35°38' E 139°45'0 0.0
2016-Feb-10 06:33N 35°38' E 139°45'0 0.0
2016-Feb-10 05:34N 35°38' E 139°45'0 0.0
2016-Feb-10 04:33N 35°38' E 139°45'0 0.0
2016-Feb-10 03:33N 35°38' E 139°45'0 0.0
2016-Feb-10 02:34N 35°38' E 139°45'0 0.0
2016-Feb-10 01:33N 35°38' E 139°45'0 0.0
2016-Feb-10 00:33N 35°38' E 139°45'0 0.1
2016-Feb-09 23:34N 35°38' E 139°45'3 3.2
2016-Feb-09 22:34N 35°35' E 139°47'2 2.1
2016-Feb-09 21:33N 35°34' E 139°49'3 3.3
2016-Feb-09 20:34N 35°37' E 139°47'2 1.9
2016-Feb-09 19:33N 35°38' E 139°45'0 0.0
2016-Feb-09 18:33N 35°38' E 139°45'0 0.0
2016-Feb-09 17:34N 35°38' E 139°45'0 0.0
2016-Feb-09 16:34N 35°38' E 139°45'0 0.0
2016-Feb-09 15:33N 35°38' E 139°45'0 0.0
2016-Feb-09 14:33N 35°38' E 139°45'0 0.0
2016-Feb-09 13:33N 35°38' E 139°45'0 0.0
2016-Feb-09 12:33N 35°38' E 139°45'0 0.0
2016-Feb-09 11:34N 35°38' E 139°45'0 0.0
2016-Feb-09 10:33N 35°38' E 139°45'0 0.0
2016-Feb-09 09:33N 35°38' E 139°45'0 0.0
2016-Feb-09 08:33N 35°38' E 139°45'0 0.0
2016-Feb-09 07:34N 35°38' E 139°45'0 0.0
2016-Feb-09 06:33N 35°38' E 139°45'0 0.0
2016-Feb-09 05:33N 35°38' E 139°45'0 0.1
2016-Feb-09 04:33N 35°38' E 139°46'2 1.8
2016-Feb-09 03:34N 35°37' E 139°47'1 1.4
2016-Feb-09 02:34N 35°38' E 139°46'1 0.7
2016-Feb-09 01:33N 35°38' E 139°45'0 0.0
2016-Feb-09 00:34N 35°38' E 139°45'0 0.0
2016-Feb-08 23:33N 35°38' E 139°45'2 2.2
2016-Feb-08 22:33N 35°36' E 139°47'0 0.2
2016-Feb-08 21:33N 35°36' E 139°47'2 2.0
2016-Feb-08 20:34N 35°38' E 139°45'0 0.0
2016-Feb-08 19:33N 35°38' E 139°45'0 0.0
2016-Feb-08 18:34N 35°38' E 139°45'0 0.0
2016-Feb-08 17:33N 35°38' E 139°46'0 0.0
2016-Feb-08 16:33N 35°38' E 139°45'0 0.0
2016-Feb-08 15:33N 35°38' E 139°45'0 0.0
2016-Feb-08 14:34N 35°38' E 139°45'0 0.0
2016-Feb-08 13:33N 35°38' E 139°45'0 0.0
2016-Feb-08 12:34N 35°38' E 139°45'0 0.0
2016-Feb-08 11:34N 35°38' E 139°45'0 0.0
2016-Feb-08 10:34N 35°38' E 139°45'0 0.0
2016-Feb-08 09:34N 35°38' E 139°45'4 4.1
2016-Feb-08 08:33N 35°35' E 139°48'2 1.7
2016-Feb-08 07:34N 35°36' E 139°47'1 1.1
2016-Feb-08 06:33N 35°37' E 139°47'2 1.7
2016-Feb-08 05:33N 35°38' E 139°45'0 0.0
2016-Feb-08 04:33N 35°38' E 139°45'0 0.0
2016-Feb-08 03:34N 35°38' E 139°45'0 0.0
2016-Feb-08 02:34N 35°38' E 139°45'0 0.0
2016-Feb-08 01:33N 35°38' E 139°45'0 0.4
2016-Feb-08 00:34N 35°38' E 139°46'2 1.9
2016-Feb-07 23:34N 35°36' E 139°47'2 2.3
2016-Feb-07 22:34N 35°38' E 139°45'0 0.0
2016-Feb-07 21:34N 35°38' E 139°45'0 0.0
2016-Feb-07 20:34N 35°38' E 139°45'0 0.0
2016-Feb-07 19:33N 35°38' E 139°45'0 0.0
2016-Feb-07 18:33N 35°38' E 139°45'0 0.0
2016-Feb-07 17:33N 35°38' E 139°45'0 0.0
2016-Feb-07 16:34N 35°38' E 139°45'0 0.0
2016-Feb-07 15:33N 35°38' E 139°45'0 0.0
2016-Feb-07 14:34N 35°38' E 139°45'0 0.0
2016-Feb-07 13:34N 35°38' E 139°45'0 0.0
2016-Feb-07 12:33N 35°38' E 139°45'0 0.0
2016-Feb-07 11:33N 35°38' E 139°45'0 0.0
2016-Feb-07 10:33N 35°38' E 139°45'0 0.0
2016-Feb-07 09:33N 35°38' E 139°45'0 0.0
2016-Feb-07 08:33N 35°38' E 139°45'0 0.0
2016-Feb-07 07:33N 35°38' E 139°45'0 0.0
2016-Feb-07 06:33N 35°38' E 139°45'0 0.0
2016-Feb-07 05:33N 35°38' E 139°45'0 0.0
2016-Feb-07 04:34N 35°38' E 139°45'0 0.0
2016-Feb-07 03:34N 35°38' E 139°45'0 0.0
2016-Feb-07 02:34N 35°38' E 139°45'0 0.0
2016-Feb-07 01:33N 35°38' E 139°45'0 0.0
2016-Feb-07 00:33N 35°38' E 139°45'0 0.0
2016-Feb-06 23:34N 35°38' E 139°45'0 0.0
2016-Feb-06 22:34N 35°38' E 139°45'0 0.0
2016-Feb-06 21:33N 35°38' E 139°45'0 0.0
2016-Feb-06 20:34N 35°38' E 139°45'0 0.0
2016-Feb-06 19:33N 35°38' E 139°45'3 2.6
2016-Feb-06 18:33N 35°36' E 139°48'1 1.3
2016-Feb-06 17:34N 35°35' E 139°47'0 0.0
2016-Feb-06 16:34N 35°35' E 139°47'1 0.7
2016-Feb-06 15:33N 35°36' E 139°46'2 2.0
2016-Feb-06 14:33N 35°38' E 139°46'0 0.0
2016-Feb-06 13:33N 35°38' E 139°46'0 0.0
2016-Feb-06 12:33N 35°38' E 139°46'0 0.0
2016-Feb-06 11:33N 35°38' E 139°46'3 2.6
2016-Feb-06 10:34N 35°35' E 139°47'1 1.0
2016-Feb-06 09:34N 35°37' E 139°47'3 3.0
2016-Feb-06 08:34N 35°34' E 139°49'5 5.1
2016-Feb-06 07:33N 35°38' E 139°45'0 0.0
2016-Feb-06 06:33N 35°38' E 139°45'0 0.0
2016-Feb-06 05:33N 35°38' E 139°45'0 0.0
2016-Feb-06 04:34N 35°38' E 139°45'0 0.0
2016-Feb-06 03:34N 35°38' E 139°45'0 0.0
2016-Feb-06 02:33N 35°38' E 139°45'0 0.0
2016-Feb-06 01:33N 35°38' E 139°45'0 0.0
2016-Feb-06 00:33N 35°38' E 139°45'0 0.0
2016-Feb-05 23:34N 35°38' E 139°45'1 1.0
2016-Feb-05 22:34N 35°37' E 139°46'3 2.8
2016-Feb-05 21:33N 35°35' E 139°48'4 3.8
2016-Feb-05 20:34N 35°38' E 139°45'0 0.0
2016-Feb-05 19:34N 35°38' E 139°45'0 0.0
2016-Feb-05 18:33N 35°38' E 139°45'0 0.0
2016-Feb-05 17:34N 35°38' E 139°45'0 0.0
2016-Feb-05 16:33N 35°38' E 139°45'0 0.0
2016-Feb-05 15:34N 35°38' E 139°45'0 0.0
2016-Feb-05 14:34N 35°38' E 139°45'0 0.0
2016-Feb-05 13:33N 35°38' E 139°45'0 0.0
2016-Feb-05 12:33N 35°38' E 139°45'0 0.0
2016-Feb-05 11:34N 35°38' E 139°45'0 0.0
2016-Feb-05 10:33N 35°38' E 139°45'0 0.0
2016-Feb-05 09:34N 35°38' E 139°45'1 0.8
2016-Feb-05 08:34N 35°37' E 139°46'2 1.7
2016-Feb-05 07:34N 35°37' E 139°48'2 2.4
2016-Feb-05 06:34N 35°38' E 139°45'0 0.0
2016-Feb-05 05:34N 35°38' E 139°45'0 0.0
2016-Feb-05 04:34N 35°38' E 139°45'0 0.0
2016-Feb-05 03:33N 35°38' E 139°45'0 0.0
2016-Feb-05 02:34N 35°38' E 139°45'0 0.0
2016-Feb-05 01:33N 35°38' E 139°45'0 0.0
2016-Feb-05 00:34N 35°38' E 139°45'0 0.0
2016-Feb-04 23:34N 35°38' E 139°45'0 0.0
2016-Feb-04 22:34N 35°38' E 139°45'3 2.8
2016-Feb-04 21:33N 35°36' E 139°48'1 1.3
2016-Feb-04 20:34N 35°36' E 139°46'1 1.5
2016-Feb-04 19:34N 35°38' E 139°46'1 0.7
2016-Feb-04 18:34N 35°37' E 139°46'1 1.1
2016-Feb-04 17:34N 35°38' E 139°45'0 0.0
2016-Feb-04 16:33N 35°38' E 139°45'0 0.0
2016-Feb-04 15:33N 35°38' E 139°45'0 0.0
2016-Feb-04 14:33N 35°38' E 139°45'0 0.0
2016-Feb-04 13:34N 35°38' E 139°45'0 0.0
2016-Feb-04 12:33N 35°38' E 139°45'0 0.0
2016-Feb-04 11:34N 35°38' E 139°45'0 0.0
2016-Feb-04 10:34N 35°38' E 139°45'0 0.0
2016-Feb-04 09:33N 35°38' E 139°45'0 0.0
2016-Feb-04 08:33N 35°38' E 139°45'0 0.0
2016-Feb-04 07:33N 35°38' E 139°45'0 0.0
2016-Feb-04 06:34N 35°38' E 139°45'0 0.0
2016-Feb-04 05:33N 35°38' E 139°45'0 0.0
2016-Feb-04 04:33N 35°38' E 139°45'0 0.0
2016-Feb-04 03:34N 35°38' E 139°45'0 0.0
2016-Feb-04 02:34N 35°38' E 139°45'4 4.4
2016-Feb-04 01:33N 35°35' E 139°48'5 4.6
2016-Feb-04 00:34N 35°39' E 139°46'  
Track history (hours):
 
Tides and Currents Weather Stations Pressure Air Temp Water Temp Dewpoint Dewpoint Depression Visibility Wind Speed Wind Dir Waves Ship Positions

Asukamaru

Last reported at 2016-Feb-13 23:34 UTC. Time now 2016-Feb-13 23:38 UTC.
Position N 35°38' E 139°45'.

Length 31 m; draft 3 m.

Type: Tug. MMSI: 431001145.

Date/timePositionNaut miles runAvg speedWind from/ knotsBaromVisibWave heightAir tempDewpointWater temp
2016-Feb-13 23:34N 35°38' E 139°45'0 0.0
2016-Feb-13 22:34N 35°38' E 139°45'0 0.0
2016-Feb-13 21:33N 35°38' E 139°45'0 0.0
2016-Feb-13 20:34N 35°38' E 139°45'0 0.0
2016-Feb-13 19:34N 35°38' E 139°45'0 0.0
2016-Feb-13 18:33N 35°38' E 139°45'0 0.0
2016-Feb-13 17:33N 35°38' E 139°45'0 0.0
2016-Feb-13 16:34N 35°38' E 139°45'0 0.0
2016-Feb-13 15:33N 35°38' E 139°45'0 0.0
2016-Feb-13 14:34N 35°38' E 139°45'0 0.0
2016-Feb-13 13:34N 35°38' E 139°45'0 0.0
2016-Feb-13 12:34N 35°38' E 139°45'2 2.0
2016-Feb-13 11:33N 35°37' E 139°47'0 0.0
2016-Feb-13 10:34N 35°37' E 139°47'0 0.2
2016-Feb-13 09:33N 35°37' E 139°47'1 1.0
2016-Feb-13 08:34N 35°36' E 139°47'2 2.3
2016-Feb-13 07:33N 35°38' E 139°45'3 2.6
2016-Feb-13 06:34N 35°36' E 139°47'1 1.0
2016-Feb-13 05:34N 35°37' E 139°47'2 1.9
2016-Feb-13 04:33N 35°38' E 139°45'0 0.0
2016-Feb-13 03:33N 35°38' E 139°45'0 0.0
2016-Feb-13 02:33N 35°38' E 139°45'0 0.0
2016-Feb-13 01:33N 35°38' E 139°45'0 0.0
2016-Feb-13 00:33N 35°38' E 139°45'0 0.0
2016-Feb-12 23:33N 35°38' E 139°45'2 2.3
2016-Feb-12 22:33N 35°36' E 139°46'3 2.8
2016-Feb-12 21:33N 35°34' E 139°49'3 3.4
2016-Feb-12 20:34N 35°37' E 139°46'1 1.5
2016-Feb-12 19:34N 35°38' E 139°45'0 0.0
2016-Feb-12 18:33N 35°38' E 139°45'0 0.0
2016-Feb-12 17:33N 35°38' E 139°45'0 0.0
2016-Feb-12 16:33N 35°38' E 139°45'0 0.0
2016-Feb-12 15:34N 35°38' E 139°45'0 0.0
2016-Feb-12 14:33N 35°38' E 139°45'0 0.0
2016-Feb-12 13:33N 35°38' E 139°45'0 0.0
2016-Feb-12 12:34N 35°38' E 139°45'0 0.0
2016-Feb-12 11:33N 35°38' E 139°45'0 0.0
2016-Feb-12 10:25N 35°38' E 139°45'0 0.0
2016-Feb-12 09:27N 35°38' E 139°45'0 0.0
2016-Feb-12 08:33N 35°38' E 139°45'0 0.0
2016-Feb-12 07:34N 35°38' E 139°45'0 0.1
2016-Feb-12 06:33N 35°38' E 139°46'0 0.1
2016-Feb-12 05:34N 35°38' E 139°45'0 0.0
2016-Feb-12 04:34N 35°38' E 139°45'0 0.0
2016-Feb-12 03:33N 35°38' E 139°45'0 0.0
2016-Feb-12 02:33N 35°38' E 139°45'0 0.0
2016-Feb-12 01:34N 35°38' E 139°45'0 0.0
2016-Feb-12 00:34N 35°38' E 139°45'0 0.0
2016-Feb-11 23:33N 35°38' E 139°45'2 2.2
2016-Feb-11 22:33N 35°36' E 139°47'1 1.0
2016-Feb-11 21:33N 35°35' E 139°47'2 2.1
2016-Feb-11 20:33N 35°37' E 139°46'1 0.9
2016-Feb-11 19:33N 35°38' E 139°45'0 0.0
2016-Feb-11 18:33N 35°38' E 139°45'0 0.0
2016-Feb-11 17:34N 35°38' E 139°45'0 0.0
2016-Feb-11 16:33N 35°38' E 139°45'0 0.0
2016-Feb-11 15:33N 35°38' E 139°45'0 0.0
2016-Feb-11 14:34N 35°38' E 139°45'0 0.0
2016-Feb-11 13:34N 35°38' E 139°45'0 0.0
2016-Feb-11 12:34N 35°38' E 139°45'0 0.0
2016-Feb-11 11:33N 35°38' E 139°45'0 0.0
2016-Feb-11 10:34N 35°38' E 139°45'0 0.0
2016-Feb-11 09:34N 35°38' E 139°45'0 0.0
2016-Feb-11 08:33N 35°38' E 139°45'0 0.0
2016-Feb-11 07:34N 35°38' E 139°45'0 0.0
2016-Feb-11 06:33N 35°38' E 139°45'0 0.0
2016-Feb-11 05:34N 35°38' E 139°45'0 0.0
2016-Feb-11 04:34N 35°38' E 139°45'0 0.0
2016-Feb-11 03:33N 35°38' E 139°45'0 0.0
2016-Feb-11 02:33N 35°38' E 139°45'0 0.0
2016-Feb-11 01:33N 35°38' E 139°45'0 0.0
2016-Feb-11 00:33N 35°38' E 139°45'0 0.0
2016-Feb-10 23:34N 35°38' E 139°45'0 0.0
2016-Feb-10 22:34N 35°38' E 139°45'0 0.0
2016-Feb-10 21:34N 35°38' E 139°45'0 0.0
2016-Feb-10 20:33N 35°38' E 139°45'0 0.0
2016-Feb-10 19:34N 35°38' E 139°45'0 0.0
2016-Feb-10 18:33N 35°38' E 139°45'0 0.0
2016-Feb-10 17:33N 35°38' E 139°45'0 0.0
2016-Feb-10 16:33N 35°38' E 139°45'0 0.0
2016-Feb-10 15:33N 35°38' E 139°45'0 0.0
2016-Feb-10 14:34N 35°38' E 139°45'0 0.0
2016-Feb-10 13:33N 35°38' E 139°45'0 0.0
2016-Feb-10 12:33N 35°38' E 139°45'0 0.0
2016-Feb-10 11:33N 35°38' E 139°45'0 0.0
2016-Feb-10 10:34N 35°38' E 139°45'0 0.0
2016-Feb-10 09:34N 35°38' E 139°45'0 0.0
2016-Feb-10 08:33N 35°38' E 139°45'0 0.0
2016-Feb-10 07:33N 35°38' E 139°45'0 0.0
2016-Feb-10 06:33N 35°38' E 139°45'0 0.0
2016-Feb-10 05:34N 35°38' E 139°45'0 0.0
2016-Feb-10 04:33N 35°38' E 139°45'0 0.0
2016-Feb-10 03:33N 35°38' E 139°45'0 0.0
2016-Feb-10 02:34N 35°38' E 139°45'0 0.0
2016-Feb-10 01:33N 35°38' E 139°45'0 0.0
2016-Feb-10 00:33N 35°38' E 139°45'0 0.1
2016-Feb-09 23:34N 35°38' E 139°45'3 3.2
2016-Feb-09 22:34N 35°35' E 139°47'2 2.1
2016-Feb-09 21:33N 35°34' E 139°49'3 3.3
2016-Feb-09 20:34N 35°37' E 139°47'2 1.9
2016-Feb-09 19:33N 35°38' E 139°45'0 0.0
2016-Feb-09 18:33N 35°38' E 139°45'0 0.0
2016-Feb-09 17:34N 35°38' E 139°45'0 0.0
2016-Feb-09 16:34N 35°38' E 139°45'0 0.0
2016-Feb-09 15:33N 35°38' E 139°45'0 0.0
2016-Feb-09 14:33N 35°38' E 139°45'0 0.0
2016-Feb-09 13:33N 35°38' E 139°45'0 0.0
2016-Feb-09 12:33N 35°38' E 139°45'0 0.0
2016-Feb-09 11:34N 35°38' E 139°45'0 0.0
2016-Feb-09 10:33N 35°38' E 139°45'0 0.0
2016-Feb-09 09:33N 35°38' E 139°45'0 0.0
2016-Feb-09 08:33N 35°38' E 139°45'0 0.0
2016-Feb-09 07:34N 35°38' E 139°45'0 0.0
2016-Feb-09 06:33N 35°38' E 139°45'0 0.0
2016-Feb-09 05:33N 35°38' E 139°45'0 0.1
2016-Feb-09 04:33N 35°38' E 139°46'2 1.8
2016-Feb-09 03:34N 35°37' E 139°47'1 1.4
2016-Feb-09 02:34N 35°38' E 139°46'1 0.7
2016-Feb-09 01:33N 35°38' E 139°45'0 0.0
2016-Feb-09 00:34N 35°38' E 139°45'0 0.0
2016-Feb-08 23:33N 35°38' E 139°45'2 2.2
2016-Feb-08 22:33N 35°36' E 139°47'0 0.2
2016-Feb-08 21:33N 35°36' E 139°47'2 2.0
2016-Feb-08 20:34N 35°38' E 139°45'0 0.0
2016-Feb-08 19:33N 35°38' E 139°45'0 0.0
2016-Feb-08 18:34N 35°38' E 139°45'0 0.0
2016-Feb-08 17:33N 35°38' E 139°46'0 0.0
2016-Feb-08 16:33N 35°38' E 139°45'0 0.0
2016-Feb-08 15:33N 35°38' E 139°45'0 0.0
2016-Feb-08 14:34N 35°38' E 139°45'0 0.0
2016-Feb-08 13:33N 35°38' E 139°45'0 0.0
2016-Feb-08 12:34N 35°38' E 139°45'0 0.0
2016-Feb-08 11:34N 35°38' E 139°45'0 0.0
2016-Feb-08 10:34N 35°38' E 139°45'0 0.0
2016-Feb-08 09:34N 35°38' E 139°45'4 4.1
2016-Feb-08 08:33N 35°35' E 139°48'2 1.7
2016-Feb-08 07:34N 35°36' E 139°47'1 1.1
2016-Feb-08 06:33N 35°37' E 139°47'2 1.7
2016-Feb-08 05:33N 35°38' E 139°45'0 0.0
2016-Feb-08 04:33N 35°38' E 139°45'0 0.0
2016-Feb-08 03:34N 35°38' E 139°45'0 0.0
2016-Feb-08 02:34N 35°38' E 139°45'0 0.0
2016-Feb-08 01:33N 35°38' E 139°45'0 0.4
2016-Feb-08 00:34N 35°38' E 139°46'2 1.9
2016-Feb-07 23:34N 35°36' E 139°47'2 2.3
2016-Feb-07 22:34N 35°38' E 139°45'0 0.0
2016-Feb-07 21:34N 35°38' E 139°45'0 0.0
2016-Feb-07 20:34N 35°38' E 139°45'0 0.0
2016-Feb-07 19:33N 35°38' E 139°45'0 0.0
2016-Feb-07 18:33N 35°38' E 139°45'0 0.0
2016-Feb-07 17:33N 35°38' E 139°45'0 0.0
2016-Feb-07 16:34N 35°38' E 139°45'0 0.0
2016-Feb-07 15:33N 35°38' E 139°45'0 0.0
2016-Feb-07 14:34N 35°38' E 139°45'0 0.0
2016-Feb-07 13:34N 35°38' E 139°45'0 0.0
2016-Feb-07 12:33N 35°38' E 139°45'0 0.0
2016-Feb-07 11:33N 35°38' E 139°45'0 0.0
2016-Feb-07 10:33N 35°38' E 139°45'0 0.0
2016-Feb-07 09:33N 35°38' E 139°45'0 0.0
2016-Feb-07 08:33N 35°38' E 139°45'0 0.0
2016-Feb-07 07:33N 35°38' E 139°45'0 0.0
2016-Feb-07 06:33N 35°38' E 139°45'0 0.0
2016-Feb-07 05:33N 35°38' E 139°45'0 0.0
2016-Feb-07 04:34N 35°38' E 139°45'0 0.0
2016-Feb-07 03:34N 35°38' E 139°45'0 0.0
2016-Feb-07 02:34N 35°38' E 139°45'0 0.0
2016-Feb-07 01:33N 35°38' E 139°45'0 0.0
2016-Feb-07 00:33N 35°38' E 139°45'0 0.0
2016-Feb-06 23:34N 35°38' E 139°45'0 0.0
2016-Feb-06 22:34N 35°38' E 139°45'0 0.0
2016-Feb-06 21:33N 35°38' E 139°45'0 0.0
2016-Feb-06 20:34N 35°38' E 139°45'0 0.0
2016-Feb-06 19:33N 35°38' E 139°45'3 2.6
2016-Feb-06 18:33N 35°36' E 139°48'1 1.3
2016-Feb-06 17:34N 35°35' E 139°47'0 0.0
2016-Feb-06 16:34N 35°35' E 139°47'1 0.7
2016-Feb-06 15:33N 35°36' E 139°46'2 2.0
2016-Feb-06 14:33N 35°38' E 139°46'0 0.0
2016-Feb-06 13:33N 35°38' E 139°46'0 0.0
2016-Feb-06 12:33N 35°38' E 139°46'0 0.0
2016-Feb-06 11:33N 35°38' E 139°46'3 2.6
2016-Feb-06 10:34N 35°35' E 139°47'1 1.0
2016-Feb-06 09:34N 35°37' E 139°47'3 3.0
2016-Feb-06 08:34N 35°34' E 139°49'5 5.1
2016-Feb-06 07:33N 35°38' E 139°45'0 0.0
2016-Feb-06 06:33N 35°38' E 139°45'0 0.0
2016-Feb-06 05:33N 35°38' E 139°45'0 0.0
2016-Feb-06 04:34N 35°38' E 139°45'0 0.0
2016-Feb-06 03:34N 35°38' E 139°45'0 0.0
2016-Feb-06 02:33N 35°38' E 139°45'0 0.0
2016-Feb-06 01:33N 35°38' E 139°45'0 0.0
2016-Feb-06 00:33N 35°38' E 139°45'0 0.0
2016-Feb-05 23:34N 35°38' E 139°45'1 1.0
2016-Feb-05 22:34N 35°37' E 139°46'3 2.8
2016-Feb-05 21:33N 35°35' E 139°48'4 3.8
2016-Feb-05 20:34N 35°38' E 139°45'0 0.0
2016-Feb-05 19:34N 35°38' E 139°45'0 0.0
2016-Feb-05 18:33N 35°38' E 139°45'0 0.0
2016-Feb-05 17:34N 35°38' E 139°45'0 0.0
2016-Feb-05 16:33N 35°38' E 139°45'0 0.0
2016-Feb-05 15:34N 35°38' E 139°45'0 0.0
2016-Feb-05 14:34N 35°38' E 139°45'0 0.0
2016-Feb-05 13:33N 35°38' E 139°45'0 0.0
2016-Feb-05 12:33N 35°38' E 139°45'0 0.0
2016-Feb-05 11:34N 35°38' E 139°45'0 0.0
2016-Feb-05 10:33N 35°38' E 139°45'0 0.0
2016-Feb-05 09:34N 35°38' E 139°45'1 0.8
2016-Feb-05 08:34N 35°37' E 139°46'2 1.7
2016-Feb-05 07:34N 35°37' E 139°48'2 2.4
2016-Feb-05 06:34N 35°38' E 139°45'0 0.0
2016-Feb-05 05:34N 35°38' E 139°45'0 0.0
2016-Feb-05 04:34N 35°38' E 139°45'0 0.0
2016-Feb-05 03:33N 35°38' E 139°45'0 0.0
2016-Feb-05 02:34N 35°38' E 139°45'0 0.0
2016-Feb-05 01:33N 35°38' E 139°45'0 0.0
2016-Feb-05 00:34N 35°38' E 139°45'0 0.0
2016-Feb-04 23:34N 35°38' E 139°45'0 0.0
2016-Feb-04 22:34N 35°38' E 139°45'3 2.8
2016-Feb-04 21:33N 35°36' E 139°48'1 1.3
2016-Feb-04 20:34N 35°36' E 139°46'1 1.5
2016-Feb-04 19:34N 35°38' E 139°46'1 0.7
2016-Feb-04 18:34N 35°37' E 139°46'1 1.1
2016-Feb-04 17:34N 35°38' E 139°45'0 0.0
2016-Feb-04 16:33N 35°38' E 139°45'0 0.0
2016-Feb-04 15:33N 35°38' E 139°45'0 0.0
2016-Feb-04 14:33N 35°38' E 139°45'0 0.0
2016-Feb-04 13:34N 35°38' E 139°45'0 0.0
2016-Feb-04 12:33N 35°38' E 139°45'0 0.0
2016-Feb-04 11:34N 35°38' E 139°45'0 0.0
2016-Feb-04 10:34N 35°38' E 139°45'0 0.0
2016-Feb-04 09:33N 35°38' E 139°45'0 0.0
2016-Feb-04 08:33N 35°38' E 139°45'0 0.0
2016-Feb-04 07:33N 35°38' E 139°45'0 0.0
2016-Feb-04 06:34N 35°38' E 139°45'0 0.0
2016-Feb-04 05:33N 35°38' E 139°45'0 0.0
2016-Feb-04 04:33N 35°38' E 139°45'0 0.0
2016-Feb-04 03:34N 35°38' E 139°45'0 0.0
2016-Feb-04 02:34N 35°38' E 139°45'4 4.4
2016-Feb-04 01:33N 35°35' E 139°48'5 4.6
2016-Feb-04 00:34N 35°39' E 139°46'  

Dump ship's entire track history